ADDS METAR Data INFO
IDs: Format: Raw Decoded Include TAF

Data at: 0316 UTC 20 Jul 2018

KMVY 200153Z 00000KT 10SM CLR 17/16 A3014 RMK AO2 SLP205 T01670156
KMVY 200053Z 16004KT 10SM CLR 17/16 A3012 RMK AO2 SLP199 T01720161
KMVY 192353Z 18004KT 10SM CLR 19/17 A3011 RMK AO2 SLP194 T01940167 10250 20194 53008
KMVY 192253Z 18006KT 10SM CLR 22/15 A3010 RMK AO2 SLP191 T02170150
KMVY 192153Z 19007KT 10SM CLR 23/13 A3008 RMK AO2 SLP187 T02330128
KMVY 192053Z 17006KT 10SM FEW041 24/13 A3008 RMK AO2 SLP187 T02390133 55001
KMVY 191953Z 17008KT 10SM BKN042 24/15 A3008 RMK AO2 SLP186 T02440150
KMVY 191853Z 17007KT 10SM SCT044 25/16 A3008 RMK AO2 SLP187 T02500156
KMVY 191753Z 23004KT 10SM BKN045 24/16 A3009 RMK AO2 SLP188 T02440156 10261 20206 50001
KMVY 191653Z 04006KT 10SM BKN045 24/15 A3009 RMK AO2 SLP189 T02440150
KMVY 191553Z 06008KT 10SM CLR 25/15 A3009 RMK AO2 SLP190 T02500150
KMVY 191453Z 08007KT 10SM CLR 24/13 A3008 RMK AO2 SLP185 T02440133 51012
KMVY 191353Z 05006KT 10SM CLR 23/14 A3008 RMK AO2 SLP185 T02330139
KMVY 191253Z 02006KT 10SM CLR 22/16 A3006 RMK AO2 SLP179 T02220161
KMVY 191153Z 36007KT 10SM CLR 21/16 A3005 RMK AO2 SLP173 T02060161 10206 20100 51014
KMVY 191053Z 35005KT 10SM CLR 17/16 A3004 RMK AO2 SLP170 T01720161
KMVY 190953Z AUTO 36006KT 10SM CLR 12/12 A3002 RMK AO2 SLP167 T01220117
KMVY 190853Z AUTO 34007KT 10SM CLR 12/12 A3001 RMK AO2 SLP160 T01220117 53012
KMVY 190753Z AUTO 36005KT 10SM CLR 13/12 A2999 RMK AO2 SLP155 T01280122
KMVY 190653Z AUTO 31004KT 10SM CLR 11/11 A2998 RMK AO2 SLP152 T01060106
KMVY 190639Z AUTO 31005KT 7SM CLR 11/11 A2998 RMK AO2 T01060106
KMVY 190632Z AUTO 31004KT 2 1/2SM BR CLR 11/11 A2997 RMK AO2 T01060106
KMVY 190615Z AUTO 30003KT 1/2SM R24/2200VP6000FT FG CLR 10/10 A2997 RMK AO2 T01000100
KMVY 190553Z AUTO 30003KT 1/4SM R24/2600VP6000FT FG CLR 11/11 A2997 RMK AO2 SLP149 T01110111 10211 20106 51008
KMVY 190525Z AUTO 30004KT 1/4SM R24/2800VP6000FT FG CLR 11/11 A2997 RMK AO2 T01110111
KMVY 190517Z AUTO 30004KT 1 1/2SM R24/6000VP6000FT BR CLR 11/11 A2997 RMK AO2 T01110106
KMVY 190453Z AUTO 29005KT 6SM BR CLR 11/11 A2996 RMK AO2 SLP146 T01110111 402720111
KMVY 190353Z AUTO 30003KT 10SM FEW060 13/12 A2995 RMK AO2 SLP142 T01280117
KMVY 190253Z AUTO 00000KT 10SM FEW060 14/13 A2995 RMK AO2 SLP139 T01390133 51018
KMVY 190153Z 28003KT 10SM FEW060 14/14 A2993 RMK AO2 SLP135 T01440139
KMVY 190053Z 00000KT 10SM CLR 18/14 A2992 RMK AO2 SLP130 T01780144
KMVY 182353Z 03003KT 10SM CLR 21/14 A2989 RMK AO2 SLP122 T02110144 10267 20211 53013
KMVY 182253Z 05006KT 10SM CLR 24/16 A2987 RMK AO2 SLP114 T02390156
KMVY 182153Z 06010KT 10SM CLR 25/16 A2986 RMK AO2 SLP110 T02500161
KMVY 182053Z 05011KT 10SM CLR 26/17 A2986 RMK AO2 SLP109 T02560167 53006
KMVY 181953Z 05008KT 10SM CLR 27/17 A2984 RMK AO2 SLP105 T02670167
KMVY 181853Z 06010KT 10SM CLR 27/17 A2984 RMK AO2 SLP104 T02670172
KMVY 181753Z 05010KT 10SM CLR 27/17 A2984 RMK AO2 SLP103 T02670172 10272 20222 50003
KMVY 181653Z 02010G17KT 10SM CLR 26/19 A2984 RMK AO2 SLP104 T02610189
KMVY 181553Z 02010G20KT 10SM FEW070 26/20 A2983 RMK AO2 SLP101 T02560200